sensor_id;sensor_type;location;lat;lon;timestamp;pressure;altitude;pressure_sealevel;temperature;humidity
31357;BME280;60001;48.404;11.738;2022-08-01T00:00:05;96244.88;;;21.76;59.07
31357;BME280;60001;48.404;11.738;2022-08-01T00:01:38;96244.88;;;21.76;59.04
31357;BME280;60001;48.404;11.738;2022-08-01T00:03:10;96245.97;;;21.75;59.29
31357;BME280;60001;48.404;11.738;2022-08-01T00:04:42;96248.22;;;21.73;59.03
31357;BME280;60001;48.404;11.738;2022-08-01T00:06:17;96249.19;;;21.68;59.40
31357;BME280;60001;48.404;11.738;2022-08-01T00:07:49;96245.25;;;21.66;59.26
31357;BME280;60001;48.404;11.738;2022-08-01T00:09:21;96247.94;;;21.66;59.19
31357;BME280;60001;48.404;11.738;2022-08-01T00:10:53;96241.63;;;21.61;59.60
31357;BME280;60001;48.404;11.738;2022-08-01T00:12:26;96243.06;;;21.59;59.11
31357;BME280;60001;48.404;11.738;2022-08-01T00:13:58;96239.13;;;21.56;59.73
31357;BME280;60001;48.404;11.738;2022-08-01T00:15:29;96242.13;;;21.55;59.87
31357;BME280;60001;48.404;11.738;2022-08-01T00:17:01;96234.72;;;21.52;59.77
31357;BME280;60001;48.404;11.738;2022-08-01T00:18:33;96240.09;;;21.52;59.66
31357;BME280;60001;48.404;11.738;2022-08-01T00:20:07;96234.25;;;21.50;59.29
31357;BME280;60001;48.404;11.738;2022-08-01T00:21:40;96238.53;;;21.51;59.24
31357;BME280;60001;48.404;11.738;2022-08-01T00:23:11;96244.69;;;21.51;58.51
31357;BME280;60001;48.404;11.738;2022-08-01T00:24:43;96242.44;;;21.53;58.53
31357;BME280;60001;48.404;11.738;2022-08-01T00:26:15;96245.94;;;21.54;58.44
31357;BME280;60001;48.404;11.738;2022-08-01T00:27:48;96251.28;;;21.54;58.37
31357;BME280;60001;48.404;11.738;2022-08-01T00:29:22;96244.34;;;21.53;58.32
31357;BME280;60001;48.404;11.738;2022-08-01T00:30:54;96245.13;;;21.53;58.70
31357;BME280;60001;48.404;11.738;2022-08-01T00:32:24;96247.81;;;21.53;58.27
31357;BME280;60001;48.404;11.738;2022-08-01T00:33:56;96249.72;;;21.53;58.17
31357;BME280;60001;48.404;11.738;2022-08-01T00:35:28;96247.03;;;21.53;57.86
31357;BME280;60001;48.404;11.738;2022-08-01T00:37:00;96245.78;;;21.50;57.84
31357;BME280;60001;48.404;11.738;2022-08-01T00:38:32;96245.78;;;21.50;58.38
31357;BME280;60001;48.404;11.738;2022-08-01T00:40:04;96238.06;;;21.49;58.55
31357;BME280;60001;48.404;11.738;2022-08-01T00:41:36;96256.06;;;21.48;57.83
31357;BME280;60001;48.404;11.738;2022-08-01T00:43:10;96247.53;;;21.46;58.14
31357;BME280;60001;48.404;11.738;2022-08-01T00:44:40;96247.09;;;21.44;58.60
31357;BME280;60001;48.404;11.738;2022-08-01T00:46:12;96245.34;;;21.40;58.03
31357;BME280;60001;48.404;11.738;2022-08-01T00:47:44;96244.56;;;21.39;58.61
31357;BME280;60001;48.404;11.738;2022-08-01T00:49:16;96239.97;;;21.40;58.05
31357;BME280;60001;48.404;11.738;2022-08-01T00:50:49;96248.38;;;21.38;58.65
31357;BME280;60001;48.404;11.738;2022-08-01T00:52:21;96242.84;;;21.34;58.31
31357;BME280;60001;48.404;11.738;2022-08-01T00:53:53;96246.63;;;21.33;58.52
31357;BME280;60001;48.404;11.738;2022-08-01T00:55:26;96240.69;;;21.28;58.74
31357;BME280;60001;48.404;11.738;2022-08-01T00:56:58;96241.72;;;21.27;58.92
31357;BME280;60001;48.404;11.738;2022-08-01T00:58:32;96245.06;;;21.24;58.94
31357;BME280;60001;48.404;11.738;2022-08-01T01:00:06;96245.41;;;21.22;59.02
31357;BME280;60001;48.404;11.738;2022-08-01T01:01:38;96248.38;;;21.21;58.77
31357;BME280;60001;48.404;11.738;2022-08-01T01:03:10;96246.81;;;21.20;59.16
31357;BME280;60001;48.404;11.738;2022-08-01T01:04:40;96244.00;;;21.16;59.30
31357;BME280;60001;48.404;11.738;2022-08-01T01:06:26;96235.78;;;21.13;58.66
31357;BME280;60001;48.404;11.738;2022-08-01T01:08:03;96241.47;;;21.11;59.20
31357;BME280;60001;48.404;11.738;2022-08-01T01:09:42;96236.75;;;21.08;59.42
31357;BME280;60001;48.404;11.738;2022-08-01T01:11:25;96240.84;;;21.05;59.11
31357;BME280;60001;48.404;11.738;2022-08-01T01:13:05;96237.69;;;21.03;59.12
31357;BME280;60001;48.404;11.738;2022-08-01T01:14:44;96240.72;;;21.02;59.69
31357;BME280;60001;48.404;11.738;2022-08-01T01:16:22;96244.81;;;20.99;59.54
31357;BME280;60001;48.404;11.738;2022-08-01T01:17:58;96248.59;;;20.98;59.49
31357;BME280;60001;48.404;11.738;2022-08-01T01:19:39;96248.16;;;20.96;59.33
31357;BME280;60001;48.404;11.738;2022-08-01T01:23:30;96248.63;;;20.90;59.94
31357;BME280;60001;48.404;11.738;2022-08-01T01:25:32;96251.63;;;20.88;59.82
31357;BME280;60001;48.404;11.738;2022-08-01T01:27:21;96246.44;;;20.83;60.24
31357;BME280;60001;48.404;11.738;2022-08-01T01:29:03;96248.66;;;20.81;59.87
31357;BME280;60001;48.404;11.738;2022-08-01T01:30:39;96249.28;;;20.78;60.27
31357;BME280;60001;48.404;11.738;2022-08-01T01:32:17;96243.59;;;20.71;60.28
31357;BME280;60001;48.404;11.738;2022-08-01T01:33:52;96248.34;;;20.74;59.93
31357;BME280;60001;48.404;11.738;2022-08-01T01:35:28;96247.06;;;20.71;60.19
31357;BME280;60001;48.404;11.738;2022-08-01T01:37:02;96251.97;;;20.69;59.85
31357;BME280;60001;48.404;11.738;2022-08-01T01:38:39;96251.50;;;20.67;60.62
31357;BME280;60001;48.404;11.738;2022-08-01T01:40:14;96248.31;;;20.65;59.96
31357;BME280;60001;48.404;11.738;2022-08-01T01:41:49;96235.13;;;20.51;60.39
31357;BME280;60001;48.404;11.738;2022-08-01T01:43:24;96242.97;;;20.57;60.29
31357;BME280;60001;48.404;11.738;2022-08-01T01:45:00;96249.91;;;20.58;60.60
31357;BME280;60001;48.404;11.738;2022-08-01T01:46:35;96252.13;;;20.56;60.33
31357;BME280;60001;48.404;11.738;2022-08-01T01:48:09;96248.66;;;20.55;60.44
31357;BME280;60001;48.404;11.738;2022-08-01T01:49:46;96242.50;;;20.55;60.50
31357;BME280;60001;48.404;11.738;2022-08-01T01:51:21;96250.09;;;20.52;60.31
31357;BME280;60001;48.404;11.738;2022-08-01T01:52:56;96245.53;;;20.53;60.72
31357;BME280;60001;48.404;11.738;2022-08-01T01:54:32;96245.03;;;20.51;60.05
31357;BME280;60001;48.404;11.738;2022-08-01T01:56:05;96248.81;;;20.50;60.41
31357;BME280;60001;48.404;11.738;2022-08-01T01:57:39;96246.13;;;20.50;60.73
31357;BME280;60001;48.404;11.738;2022-08-01T01:59:11;96244.41;;;20.45;60.54
31357;BME280;60001;48.404;11.738;2022-08-01T02:00:47;96248.34;;;20.48;60.11
31357;BME280;60001;48.404;11.738;2022-08-01T02:02:23;96254.81;;;20.47;60.13
31357;BME280;60001;48.404;11.738;2022-08-01T02:03:56;96252.47;;;20.45;60.14
31357;BME280;60001;48.404;11.738;2022-08-01T02:05:29;96243.63;;;20.45;60.72
31357;BME280;60001;48.404;11.738;2022-08-01T02:07:07;96248.47;;;20.43;60.45
31357;BME280;60001;48.404;11.738;2022-08-01T02:08:41;96245.78;;;20.43;60.14
31357;BME280;60001;48.404;11.738;2022-08-01T02:10:15;96256.38;;;20.39;60.59
31357;BME280;60001;48.404;11.738;2022-08-01T02:11:49;96263.94;;;20.37;60.95
31357;BME280;60001;48.404;11.738;2022-08-01T02:13:22;96254.63;;;20.35;61.00
31357;BME280;60001;48.404;11.738;2022-08-01T02:14:55;96258.09;;;20.35;60.84
31357;BME280;60001;48.404;11.738;2022-08-01T02:16:35;96259.06;;;20.31;60.69
31357;BME280;60001;48.404;11.738;2022-08-01T02:18:09;96261.56;;;20.27;61.22
31357;BME280;60001;48.404;11.738;2022-08-01T02:19:43;96273.41;;;20.26;61.04
31357;BME280;60001;48.404;11.738;2022-08-01T02:21:23;96259.03;;;20.22;61.22
31357;BME280;60001;48.404;11.738;2022-08-01T02:23:03;96261.25;;;20.20;61.41
31357;BME280;60001;48.404;11.738;2022-08-01T02:24:42;96261.88;;;20.17;61.37
31357;BME280;60001;48.404;11.738;2022-08-01T02:26:18;96251.13;;;20.08;62.11
31357;BME280;60001;48.404;11.738;2022-08-01T02:27:59;96267.06;;;20.13;61.70
31357;BME280;60001;48.404;11.738;2022-08-01T02:29:42;96264.53;;;20.08;61.92
31357;BME280;60001;48.404;11.738;2022-08-01T02:31:19;96269.44;;;20.06;62.13
31357;BME280;60001;48.404;11.738;2022-08-01T02:32:59;96276.22;;;20.04;62.31
31357;BME280;60001;48.404;11.738;2022-08-01T02:34:35;96268.78;;;20.01;62.29
31357;BME280;60001;48.404;11.738;2022-08-01T02:36:07;96268.91;;;19.95;62.26
31357;BME280;60001;48.404;11.738;2022-08-01T02:37:48;96269.88;;;19.91;62.40
31357;BME280;60001;48.404;11.738;2022-08-01T02:39:22;96265.63;;;19.90;62.87
31357;BME280;60001;48.404;11.738;2022-08-01T02:40:59;96267.78;;;19.88;63.02
31357;BME280;60001;48.404;11.738;2022-08-01T02:42:35;96267.66;;;19.84;62.79
31357;BME280;60001;48.404;11.738;2022-08-01T02:44:13;96268.75;;;19.83;63.08
31357;BME280;60001;48.404;11.738;2022-08-01T02:45:51;96270.94;;;19.81;63.76
31357;BME280;60001;48.404;11.738;2022-08-01T02:47:28;96271.25;;;19.80;62.76
31357;BME280;60001;48.404;11.738;2022-08-01T02:49:06;96264.16;;;19.75;63.00
31357;BME280;60001;48.404;11.738;2022-08-01T02:50:42;96265.56;;;19.73;63.85
31357;BME280;60001;48.404;11.738;2022-08-01T02:52:17;96272.34;;;19.70;63.37
31357;BME280;60001;48.404;11.738;2022-08-01T02:53:52;96270.75;;;19.69;63.81
31357;BME280;60001;48.404;11.738;2022-08-01T02:55:26;96273.72;;;19.67;63.85
31357;BME280;60001;48.404;11.738;2022-08-01T02:57:01;96275.94;;;19.65;64.22
31357;BME280;60001;48.404;11.738;2022-08-01T02:58:36;96267.75;;;19.62;64.30
31357;BME280;60001;48.404;11.738;2022-08-01T03:00:10;96271.50;;;19.61;64.67
31357;BME280;60001;48.404;11.738;2022-08-01T03:01:44;96276.38;;;19.59;64.26
31357;BME280;60001;48.404;11.738;2022-08-01T03:03:17;96271.63;;;19.56;63.96
31357;BME280;60001;48.404;11.738;2022-08-01T03:04:52;96273.00;;;19.53;64.55
31357;BME280;60001;48.404;11.738;2022-08-01T03:06:25;96278.69;;;19.52;64.46
31357;BME280;60001;48.404;11.738;2022-08-01T03:07:59;96275.22;;;19.51;64.41
31357;BME280;60001;48.404;11.738;2022-08-01T03:09:36;96277.44;;;19.49;64.16
31357;BME280;60001;48.404;11.738;2022-08-01T03:11:15;96271.09;;;19.45;64.70
31357;BME280;60001;48.404;11.738;2022-08-01T03:12:50;96274.56;;;19.45;64.90
31357;BME280;60001;48.404;11.738;2022-08-01T03:14:24;96271.88;;;19.45;64.42
31357;BME280;60001;48.404;11.738;2022-08-01T03:15:58;96275.19;;;19.42;64.46
31357;BME280;60001;48.404;11.738;2022-08-01T03:17:33;96281.34;;;19.43;64.96
31357;BME280;60001;48.404;11.738;2022-08-01T03:19:08;96274.09;;;19.43;64.84
31357;BME280;60001;48.404;11.738;2022-08-01T03:20:45;96280.22;;;19.44;64.39
31357;BME280;60001;48.404;11.738;2022-08-01T03:22:18;96285.59;;;19.44;64.46
31357;BME280;60001;48.404;11.738;2022-08-01T03:23:56;96290.63;;;19.45;64.17
31357;BME280;60001;48.404;11.738;2022-08-01T03:25:31;96285.28;;;19.45;64.78
31357;BME280;60001;48.404;11.738;2022-08-01T03:27:04;96282.59;;;19.45;64.71
31357;BME280;60001;48.404;11.738;2022-08-01T03:28:38;96290.63;;;19.45;64.02
31357;BME280;60001;48.404;11.738;2022-08-01T03:30:13;96286.84;;;19.47;64.44
31357;BME280;60001;48.404;11.738;2022-08-01T03:31:48;96284.16;;;19.47;63.91
31357;BME280;60001;48.404;11.738;2022-08-01T03:33:20;96291.91;;;19.48;64.33
31357;BME280;60001;48.404;11.738;2022-08-01T03:34:51;96293.50;;;19.49;64.11
31357;BME280;60001;48.404;11.738;2022-08-01T03:36:26;96294.59;;;19.48;63.95
31357;BME280;60001;48.404;11.738;2022-08-01T03:38:01;96291.59;;;19.50;64.08
31357;BME280;60001;48.404;11.738;2022-08-01T03:39:40;96291.13;;;19.48;63.39
31357;BME280;60001;48.404;11.738;2022-08-01T03:41:20;96288.44;;;19.48;63.74
31357;BME280;60001;48.404;11.738;2022-08-01T03:42:58;96292.19;;;19.47;63.23
31357;BME280;60001;48.404;11.738;2022-08-01T03:44:33;96296.63;;;19.42;64.19
31357;BME280;60001;48.404;11.738;2022-08-01T03:46:29;96295.50;;;19.43;63.38
31357;BME280;60001;48.404;11.738;2022-08-01T03:48:07;96300.88;;;19.43;64.00
31357;BME280;60001;48.404;11.738;2022-08-01T03:49:43;96305.44;;;19.43;63.99
31357;BME280;60001;48.404;11.738;2022-08-01T03:51:24;96303.84;;;19.42;63.98
31357;BME280;60001;48.404;11.738;2022-08-01T03:53:00;96303.06;;;19.41;64.04
31357;BME280;60001;48.404;11.738;2022-08-01T03:54:37;96296.13;;;19.40;63.54
31357;BME280;60001;48.404;11.738;2022-08-01T03:56:28;96306.84;;;19.40;64.28
31357;BME280;60001;48.404;11.738;2022-08-01T03:58:03;96304.16;;;19.40;63.81
31357;BME280;60001;48.404;11.738;2022-08-01T03:59:37;96303.34;;;19.40;63.72
31357;BME280;60001;48.404;11.738;2022-08-01T04:01:10;96306.22;;;19.43;63.73
31357;BME280;60001;48.404;11.738;2022-08-01T04:02:42;96306.22;;;19.43;63.71
31357;BME280;60001;48.404;11.738;2022-08-01T04:04:15;96308.59;;;19.45;63.96
31357;BME280;60001;48.404;11.738;2022-08-01T04:05:47;96304.81;;;19.46;64.01
31357;BME280;60001;48.404;11.738;2022-08-01T04:07:26;96304.53;;;19.48;64.01
31357;BME280;60001;48.404;11.738;2022-08-01T04:08:58;96310.34;;;19.50;64.17
31357;BME280;60001;48.404;11.738;2022-08-01T04:10:31;96302.78;;;19.52;64.33
31357;BME280;60001;48.404;11.738;2022-08-01T04:12:04;96309.13;;;19.56;63.76
31357;BME280;60001;48.404;11.738;2022-08-01T04:13:35;96313.88;;;19.59;63.50
31357;BME280;60001;48.404;11.738;2022-08-01T04:15:08;96312.50;;;19.61;63.85
31357;BME280;60001;48.404;11.738;2022-08-01T04:16:40;96318.31;;;19.63;63.70
31357;BME280;60001;48.404;11.738;2022-08-01T04:18:12;96319.25;;;19.67;63.60
31357;BME280;60001;48.404;11.738;2022-08-01T04:19:44;96324.34;;;19.69;63.85
31357;BME280;60001;48.404;11.738;2022-08-01T04:21:35;96334.09;;;19.74;63.18
31357;BME280;60001;48.404;11.738;2022-08-01T04:23:10;96323.72;;;19.72;63.72
31357;BME280;60001;48.404;11.738;2022-08-01T04:24:47;96341.84;;;19.75;63.71
31357;BME280;60001;48.404;11.738;2022-08-01T04:26:39;96345.00;;;19.77;64.09
31357;BME280;60001;48.404;11.738;2022-08-01T04:28:14;96338.53;;;19.78;63.59
31357;BME280;60001;48.404;11.738;2022-08-01T04:29:49;96339.03;;;19.80;63.46
31357;BME280;60001;48.404;11.738;2022-08-01T04:31:33;96345.94;;;19.81;63.70
31357;BME280;60001;48.404;11.738;2022-08-01T04:33:08;96347.25;;;19.84;63.03
31357;BME280;60001;48.404;11.738;2022-08-01T04:34:41;96346.47;;;19.83;63.31
31357;BME280;60001;48.404;11.738;2022-08-01T04:36:30;96350.59;;;19.89;63.28
31357;BME280;60001;48.404;11.738;2022-08-01T04:38:05;96359.41;;;19.90;63.00
31357;BME280;60001;48.404;11.738;2022-08-01T04:39:41;96354.84;;;19.90;62.64
31357;BME280;60001;48.404;11.738;2022-08-01T04:41:23;96356.09;;;19.93;63.32
31357;BME280;60001;48.404;11.738;2022-08-01T04:42:57;96346.81;;;19.90;63.26
31357;BME280;60001;48.404;11.738;2022-08-01T04:44:29;96353.28;;;19.98;62.69
31357;BME280;60001;48.404;11.738;2022-08-01T04:46:03;96347.28;;;20.01;62.46
31357;BME280;60001;48.404;11.738;2022-08-01T04:47:36;96351.25;;;20.04;62.55
31357;BME280;60001;48.404;11.738;2022-08-01T04:49:10;96354.56;;;20.09;62.96
31357;BME280;60001;48.404;11.738;2022-08-01T04:50:42;96356.63;;;20.12;62.70
31357;BME280;60001;48.404;11.738;2022-08-01T04:52:14;96337.84;;;20.04;62.95
31357;BME280;60001;48.404;11.738;2022-08-01T04:53:48;96354.75;;;20.13;62.54
31357;BME280;60001;48.404;11.738;2022-08-01T04:55:22;96355.06;;;20.11;63.15
31357;BME280;60001;48.404;11.738;2022-08-01T04:56:54;96354.75;;;20.13;63.25
31357;BME280;60001;48.404;11.738;2022-08-01T04:58:30;96354.75;;;20.13;62.83
31357;BME280;60001;48.404;11.738;2022-08-01T05:00:03;96354.75;;;20.13;62.69
31357;BME280;60001;48.404;11.738;2022-08-01T05:01:37;96356.31;;;20.14;63.34
31357;BME280;60001;48.404;11.738;2022-08-01T05:03:09;96355.53;;;20.13;63.08
31357;BME280;60001;48.404;11.738;2022-08-01T05:04:42;96353.16;;;20.12;62.71
31357;BME280;60001;48.404;11.738;2022-08-01T05:06:23;96360.44;;;20.11;63.04
31357;BME280;60001;48.404;11.738;2022-08-01T05:07:55;96364.69;;;20.12;62.82
31357;BME280;60001;48.404;11.738;2022-08-01T05:09:27;96364.69;;;20.12;63.50
31357;BME280;60001;48.404;11.738;2022-08-01T05:11:00;96366.25;;;20.13;63.74
31357;BME280;60001;48.404;11.738;2022-08-01T05:12:32;96366.72;;;20.15;63.19
31357;BME280;60001;48.404;11.738;2022-08-01T05:14:04;96366.72;;;20.15;63.15
31357;BME280;60001;48.404;11.738;2022-08-01T05:15:37;96372.75;;;20.21;63.95
31357;BME280;60001;48.404;11.738;2022-08-01T05:17:09;96380.66;;;20.26;63.59
31357;BME280;60001;48.404;11.738;2022-08-01T05:18:41;96373.25;;;20.32;64.05
31357;BME280;60001;48.404;11.738;2022-08-01T05:20:13;96369.63;;;20.36;64.16
31357;BME280;60001;48.404;11.738;2022-08-01T05:21:45;96380.22;;;20.41;63.37
31357;BME280;60001;48.404;11.738;2022-08-01T05:23:16;96381.22;;;20.45;63.31
31357;BME280;60001;48.404;11.738;2022-08-01T05:24:48;96381.69;;;20.47;63.06
31357;BME280;60001;48.404;11.738;2022-08-01T05:26:30;96379.00;;;20.47;62.82
31357;BME280;60001;48.404;11.738;2022-08-01T05:28:02;96384.22;;;20.52;62.86
31357;BME280;60001;48.404;11.738;2022-08-01T05:29:34;96385.47;;;20.55;62.26
31357;BME280;60001;48.404;11.738;2022-08-01T05:31:06;96391.31;;;20.57;62.44
31357;BME280;60001;48.404;11.738;2022-08-01T05:32:38;96384.69;;;20.55;62.17
31357;BME280;60001;48.404;11.738;2022-08-01T05:34:11;96393.69;;;20.59;62.56
31357;BME280;60001;48.404;11.738;2022-08-01T05:35:42;96391.03;;;20.59;61.71
31357;BME280;60001;48.404;11.738;2022-08-01T05:37:13;96389.41;;;20.58;61.74
31357;BME280;60001;48.404;11.738;2022-08-01T05:38:45;96394.78;;;20.58;61.35
31357;BME280;60001;48.404;11.738;2022-08-01T05:40:17;96394.16;;;20.61;61.39
31357;BME280;60001;48.404;11.738;2022-08-01T05:41:50;96399.22;;;20.62;61.15
31357;BME280;60001;48.404;11.738;2022-08-01T05:43:22;96397.31;;;20.63;61.65
31357;BME280;60001;48.404;11.738;2022-08-01T05:44:54;96405.53;;;20.66;61.21
31357;BME280;60001;48.404;11.738;2022-08-01T05:46:26;96404.91;;;20.69;61.51
31357;BME280;60001;48.404;11.738;2022-08-01T05:47:57;96403.97;;;20.74;61.62
31357;BME280;60001;48.404;11.738;2022-08-01T05:49:32;96406.03;;;20.77;61.82
31357;BME280;60001;48.404;11.738;2022-08-01T05:51:04;96402.41;;;20.82;61.74
31357;BME280;60001;48.404;11.738;2022-08-01T05:52:36;96410.13;;;20.83;61.96
31357;BME280;60001;48.404;11.738;2022-08-01T05:54:08;96406.19;;;20.89;61.84
31357;BME280;60001;48.404;11.738;2022-08-01T05:55:39;96404.16;;;20.95;61.57
31357;BME280;60001;48.404;11.738;2022-08-01T05:57:12;96397.53;;;21.01;61.26
31357;BME280;60001;48.404;11.738;2022-08-01T05:58:44;96407.28;;;21.05;61.25
31357;BME280;60001;48.404;11.738;2022-08-01T06:00:15;96406.19;;;21.06;61.28
31357;BME280;60001;48.404;11.738;2022-08-01T06:01:47;96401.78;;;21.11;61.89
31357;BME280;60001;48.404;11.738;2022-08-01T06:03:18;96400.34;;;21.13;61.32
31357;BME280;60001;48.404;11.738;2022-08-01T06:04:50;96412.69;;;21.14;61.49
31357;BME280;60001;48.404;11.738;2022-08-01T06:06:25;96404.94;;;21.13;61.50
31357;BME280;60001;48.404;11.738;2022-08-01T06:07:57;96418.34;;;21.13;61.33
31357;BME280;60001;48.404;11.738;2022-08-01T06:09:29;96412.84;;;21.09;60.93
31357;BME280;60001;48.404;11.738;2022-08-01T06:11:02;96415.66;;;21.04;59.62
31357;BME280;60001;48.404;11.738;2022-08-01T06:12:36;96415.81;;;20.99;59.82
31357;BME280;60001;48.404;11.738;2022-08-01T06:14:08;96421.03;;;20.95;60.36
31357;BME280;60001;48.404;11.738;2022-08-01T06:15:40;96421.66;;;20.92;60.33
31357;BME280;60001;48.404;11.738;2022-08-01T06:17:12;96421.19;;;20.90;60.35
31357;BME280;60001;48.404;11.738;2022-08-01T06:18:43;96421.19;;;20.90;60.28
31357;BME280;60001;48.404;11.738;2022-08-01T06:20:15;96424.06;;;20.94;60.85
31357;BME280;60001;48.404;11.738;2022-08-01T06:21:47;96422.63;;;20.96;60.80
31357;BME280;60001;48.404;11.738;2022-08-01T06:23:20;96431.13;;;20.98;61.06
31357;BME280;60001;48.404;11.738;2022-08-01T06:24:52;96424.97;;;20.98;60.95
31357;BME280;60001;48.404;11.738;2022-08-01T06:26:45;96429.75;;;21.01;60.60
31357;BME280;60001;48.404;11.738;2022-08-01T06:28:18;96424.97;;;21.06;60.11
31357;BME280;60001;48.404;11.738;2022-08-01T06:29:50;96419.13;;;21.13;61.05
31357;BME280;60001;48.404;11.738;2022-08-01T06:31:31;96426.25;;;21.26;60.92
31357;BME280;60001;48.404;11.738;2022-08-01T06:33:03;96418.38;;;21.39;60.05
31357;BME280;60001;48.404;11.738;2022-08-01T06:34:35;96428.63;;;21.54;59.81
31357;BME280;60001;48.404;11.738;2022-08-01T06:36:07;96421.16;;;21.68;58.68
31357;BME280;60001;48.404;11.738;2022-08-01T06:37:39;96423.34;;;21.92;59.40
31357;BME280;60001;48.404;11.738;2022-08-01T06:39:11;96418.97;;;22.26;59.21
31357;BME280;60001;48.404;11.738;2022-08-01T06:40:43;96425.34;;;22.71;57.68
31357;BME280;60001;48.404;11.738;2022-08-01T06:42:14;96428.75;;;23.10;56.13
31357;BME280;60001;48.404;11.738;2022-08-01T06:43:47;96425.34;;;23.55;54.83
31357;BME280;60001;48.404;11.738;2022-08-01T06:45:19;96422.56;;;23.97;54.32
31357;BME280;60001;48.404;11.738;2022-08-01T06:46:52;96428.25;;;24.28;53.08
31357;BME280;60001;48.404;11.738;2022-08-01T06:48:24;96430.94;;;24.41;51.79
31357;BME280;60001;48.404;11.738;2022-08-01T06:49:56;96424.22;;;24.47;50.98
31357;BME280;60001;48.404;11.738;2022-08-01T06:51:28;96428.47;;;24.60;50.63
31357;BME280;60001;48.404;11.738;2022-08-01T06:53:00;96431.19;;;24.72;49.76
31357;BME280;60001;48.404;11.738;2022-08-01T06:54:32;96424.41;;;24.78;49.16
31357;BME280;60001;48.404;11.738;2022-08-01T06:56:05;96432.94;;;24.93;49.34
31357;BME280;60001;48.404;11.738;2022-08-01T06:57:45;96428.97;;;25.14;47.98
31357;BME280;60001;48.404;11.738;2022-08-01T06:59:19;96434.13;;;25.32;47.45
31357;BME280;60001;48.404;11.738;2022-08-01T07:00:51;96431.88;;;25.50;47.23
31357;BME280;60001;48.404;11.738;2022-08-01T07:02:23;96433.03;;;25.77;46.27
31357;BME280;60001;48.404;11.738;2022-08-01T07:03:55;96434.13;;;26.04;45.23
31357;BME280;60001;48.404;11.738;2022-08-01T07:05:27;96434.91;;;26.20;44.74
31357;BME280;60001;48.404;11.738;2022-08-01T07:07:01;96432.47;;;26.31;43.90
31357;BME280;60001;48.404;11.738;2022-08-01T07:08:33;96427.91;;;26.35;43.59
31357;BME280;60001;48.404;11.738;2022-08-01T07:10:06;96426.44;;;26.37;43.27
31357;BME280;60001;48.404;11.738;2022-08-01T07:11:38;96436.06;;;26.50;43.32
31357;BME280;60001;48.404;11.738;2022-08-01T07:13:10;96431.09;;;26.53;43.25
31357;BME280;60001;48.404;11.738;2022-08-01T07:14:44;96433.97;;;26.60;42.52
31357;BME280;60001;48.404;11.738;2022-08-01T07:16:31;96429.59;;;26.71;42.86
31357;BME280;60001;48.404;11.738;2022-08-01T07:18:03;96429.34;;;26.95;43.21
31357;BME280;60001;48.404;11.738;2022-08-01T07:19:35;96430.38;;;27.26;42.93
31357;BME280;60001;48.404;11.738;2022-08-01T07:21:07;96434.19;;;27.41;42.47
31357;BME280;60001;48.404;11.738;2022-08-01T07:22:39;96424.97;;;27.84;41.80
31357;BME280;60001;48.404;11.738;2022-08-01T07:24:13;96431.75;;;28.17;41.49
31357;BME280;60001;48.404;11.738;2022-08-01T07:25:45;96428.66;;;28.41;40.48
31357;BME280;60001;48.404;11.738;2022-08-01T07:29:47;96433.16;;;28.56;39.13
31357;BME280;60001;48.404;11.738;2022-08-01T07:31:19;96430.19;;;28.65;39.19
31357;BME280;60001;48.404;11.738;2022-08-01T07:32:51;96428.88;;;28.82;38.77
31357;BME280;60001;48.404;11.738;2022-08-01T07:34:24;96435.97;;;28.90;38.67
31357;BME280;60001;48.404;11.738;2022-08-01T07:35:56;96424.94;;;29.02;38.42
31357;BME280;60001;48.404;11.738;2022-08-01T07:37:28;96429.88;;;29.27;39.11
31357;BME280;60001;48.404;11.738;2022-08-01T07:39:00;96431.94;;;29.67;38.50
31357;BME280;60001;48.404;11.738;2022-08-01T07:40:32;96428.78;;;29.98;37.88
31357;BME280;60001;48.404;11.738;2022-08-01T07:42:04;96428.63;;;30.21;36.91
31357;BME280;60001;48.404;11.738;2022-08-01T07:43:35;96434.53;;;30.30;37.18
31357;BME280;60001;48.404;11.738;2022-08-01T07:45:10;96435.75;;;30.37;36.72
31357;BME280;60001;48.404;11.738;2022-08-01T07:46:42;96436.50;;;30.34;36.59
31357;BME280;60001;48.404;11.738;2022-08-01T07:48:14;96437.63;;;30.25;36.99
31357;BME280;60001;48.404;11.738;2022-08-01T07:49:45;96440.06;;;30.41;36.28
31357;BME280;60001;48.404;11.738;2022-08-01T07:51:17;96430.75;;;30.46;37.00
31357;BME280;60001;48.404;11.738;2022-08-01T07:52:49;96426.94;;;30.54;36.20
31357;BME280;60001;48.404;11.738;2022-08-01T07:54:21;96421.13;;;30.59;37.75
31357;BME280;60001;48.404;11.738;2022-08-01T07:55:54;96431.75;;;30.68;36.97
31357;BME280;60001;48.404;11.738;2022-08-01T07:57:25;96426.06;;;30.43;36.09
31357;BME280;60001;48.404;11.738;2022-08-01T07:58:57;96429.06;;;30.27;36.59
31357;BME280;60001;48.404;11.738;2022-08-01T08:00:30;96434.47;;;30.23;36.52
31357;BME280;60001;48.404;11.738;2022-08-01T08:02:02;96429.13;;;29.97;36.64
31357;BME280;60001;48.404;11.738;2022-08-01T08:03:34;96426.84;;;30.02;37.69
31357;BME280;60001;48.404;11.738;2022-08-01T08:05:06;96431.13;;;30.41;37.28
31357;BME280;60001;48.404;11.738;2022-08-01T08:06:38;96431.00;;;30.74;36.97
31357;BME280;60001;48.404;11.738;2022-08-01T08:08:11;96423.00;;;31.06;36.76
31357;BME280;60001;48.404;11.738;2022-08-01T08:09:44;96422.81;;;31.47;35.44
31357;BME280;60001;48.404;11.738;2022-08-01T08:11:16;96422.88;;;31.65;34.44
31357;BME280;60001;48.404;11.738;2022-08-01T08:12:47;96422.13;;;31.75;34.73
31357;BME280;60001;48.404;11.738;2022-08-01T08:14:20;96420.25;;;32.04;34.22
31357;BME280;60001;48.404;11.738;2022-08-01T08:15:55;96418.28;;;32.05;34.35
31357;BME280;60001;48.404;11.738;2022-08-01T08:17:28;96422.59;;;32.09;33.78